Time;durP1;ratioP1;P1;durP2;ratioP2;P2;SDS_P1;SDS_P2;PMS_P1;PMS_P2;Temp;Humidity;BMP_temperature;BMP_pressure;BME280_temperature;BME280_humidity;BME280_pressure;Samples;Min_cycle;Max_cycle;Signal;HPM_P1;HPM_P2
2021/10/01 00:00:26;;;;;;;2.47;1.20;;;13.50;69.60;;;;;;5009476;28;20030;-75
2021/10/01 00:02:51;;;;;;;3.25;1.30;;;13.50;69.80;;;;;;5010129;28;20026;-75
2021/10/01 00:05:19;;;;;;;2.58;1.17;;;13.40;69.70;;;;;;5010086;28;20029;-75
2021/10/01 00:07:45;;;;;;;3.90;1.23;;;13.40;69.80;;;;;;5008719;28;20136;-75
2021/10/01 00:10:10;;;;;;;3.50;1.17;;;13.40;69.80;;;;;;5008682;28;20541;-76
2021/10/01 00:12:36;;;;;;;4.15;1.52;;;13.40;69.90;;;;;;5009635;28;20026;-75
2021/10/01 00:15:03;;;;;;;2.45;1.08;;;13.40;69.90;;;;;;5009411;28;20159;-75
2021/10/01 00:17:28;;;;;;;3.13;1.13;;;13.30;70.00;;;;;;5010268;28;20480;-75
2021/10/01 00:19:54;;;;;;;3.08;1.17;;;13.30;70.10;;;;;;5009713;28;20030;-75
2021/10/01 00:22:19;;;;;;;4.35;1.40;;;13.30;70.10;;;;;;5009882;28;20032;-74
2021/10/01 00:24:45;;;;;;;2.42;1.50;;;13.30;70.20;;;;;;5009394;28;20496;-75
2021/10/01 00:27:12;;;;;;;4.03;1.27;;;13.30;70.20;;;;;;5009053;28;20144;-75
2021/10/01 00:29:38;;;;;;;4.07;1.30;;;13.30;70.20;;;;;;5009813;28;20029;-75
2021/10/01 00:32:05;;;;;;;2.28;1.08;;;13.30;70.20;;;;;;5008770;28;20049;-75
2021/10/01 00:34:30;;;;;;;2.53;1.08;;;13.30;70.10;;;;;;5007985;28;20117;-76
2021/10/01 00:36:56;;;;;;;3.80;1.40;;;13.30;70.10;;;;;;5009058;28;20923;-76
2021/10/01 00:39:22;;;;;;;3.50;1.38;;;13.30;70.10;;;;;;5009714;28;20487;-76
2021/10/01 00:41:47;;;;;;;1.55;0.98;;;13.40;70.20;;;;;;5009160;28;20075;-76
2021/10/01 00:44:13;;;;;;;2.13;0.93;;;13.40;70.10;;;;;;5008679;28;20037;-76
2021/10/01 00:46:38;;;;;;;3.83;1.30;;;13.40;70.10;;;;;;5016371;28;20030;-75
2021/10/01 00:49:04;;;;;;;4.28;1.20;;;13.40;70.00;;;;;;5024049;28;20057;-75
2021/10/01 00:51:33;;;;;;;2.58;1.20;;;13.40;69.90;;;;;;5012889;28;20090;-75
2021/10/01 00:53:59;;;;;;;2.53;1.10;;;13.40;69.80;;;;;;5008318;28;20022;-75
2021/10/01 00:56:24;;;;;;;4.82;1.42;;;13.40;69.80;;;;;;5008776;28;20495;-75
2021/10/01 00:58:50;;;;;;;2.33;1.10;;;13.40;69.80;;;;;;5008476;28;20034;-75
2021/10/01 01:01:16;;;;;;;5.07;1.50;;;13.40;69.80;;;;;;5008557;28;20063;-75
2021/10/01 01:03:52;;;;;;;4.03;1.30;;;13.50;69.80;;;;;;5008865;28;20045;-75
2021/10/01 01:06:39;;;;;;;3.50;1.13;;;13.40;69.80;;;;;;5010930;28;20400;-76
2021/10/01 01:09:23;;;;;;;1.92;0.90;;;13.40;69.80;;;;;;5036181;28;20026;-75
2021/10/01 01:12:00;;;;;;;3.28;1.20;;;13.50;69.90;;;;;;5008915;28;20059;-75
2021/10/01 01:14:34;;;;;;;3.38;1.10;;;13.50;69.90;;;;;;5007625;28;20022;-75
2021/10/01 01:17:01;;;;;;;3.28;1.10;;;13.50;69.80;;;;;;5008487;28;20544;-75
2021/10/01 01:20:04;;;;;;;1.98;1.02;;;13.50;69.70;;;;;;4997176;28;20066;-76
2021/10/01 01:22:38;;;;;;;;;;;13.50;69.60;;;;;;5030861;28;20507;-76
2021/10/01 01:25:36;;;;;;;3.00;1.27;;;13.50;69.50;;;;;;5007653;28;20287;-76
2021/10/01 01:28:31;;;;;;;1.85;1.10;;;13.40;69.60;;;;;;4984225;28;20050;-76
2021/10/01 01:31:04;;;;;;;2.13;0.93;;;13.40;69.60;;;;;;5007124;28;20041;-75
2021/10/01 01:33:31;;;;;;;;;;;13.40;69.70;;;;;;5008292;28;20029;-73
2021/10/01 01:35:58;;;;;;;2.70;1.13;;;13.40;69.70;;;;;;5008255;28;19909;-76
2021/10/01 01:38:32;;;;;;;3.25;1.23;;;13.30;69.80;;;;;;5006250;28;20049;-73
2021/10/01 01:41:02;;;;;;;2.33;1.08;;;13.30;69.80;;;;;;4997373;28;20032;-76
2021/10/01 01:43:30;;;;;;;2.20;1.02;;;13.30;69.90;;;;;;5008336;28;20520;-76
2021/10/01 01:45:56;;;;;;;3.33;1.20;;;13.30;70.00;;;;;;5039314;28;20032;-76
2021/10/01 01:48:23;;;;;;;2.17;0.80;;;13.30;69.90;;;;;;5008599;28;20057;-76
2021/10/01 01:50:49;;;;;;;4.03;1.40;;;13.30;69.90;;;;;;5008172;28;20030;-77
2021/10/01 01:53:17;;;;;;;2.95;1.13;;;13.20;69.80;;;;;;5007436;28;20030;-76
2021/10/01 01:55:44;;;;;;;2.80;1.10;;;13.20;69.90;;;;;;5008233;28;20049;-73
2021/10/01 01:58:10;;;;;;;2.60;1.10;;;13.20;70.00;;;;;;5007750;28;20029;-74
2021/10/01 02:00:36;;;;;;;4.63;1.50;;;13.30;70.00;;;;;;5007576;28;20034;-74
2021/10/01 02:03:03;;;;;;;2.75;1.10;;;13.20;69.90;;;;;;5006519;28;20049;-73
2021/10/01 02:05:29;;;;;;;2.38;1.10;;;13.20;69.90;;;;;;5007964;28;20025;-73
2021/10/01 02:07:57;;;;;;;1.27;0.90;;;13.30;69.90;;;;;;5007299;28;20173;-74
2021/10/01 02:10:24;;;;;;;2.08;0.90;;;13.30;69.90;;;;;;5007606;28;20660;-74
2021/10/01 02:12:53;;;;;;;1.63;0.75;;;13.30;69.70;;;;;;5008145;28;20029;-74
2021/10/01 02:15:21;;;;;;;1.20;0.82;;;13.30;69.60;;;;;;5007186;28;20045;-74
2021/10/01 02:17:49;;;;;;;2.65;1.02;;;13.30;69.70;;;;;;5006807;28;20422;-75
2021/10/01 02:20:16;;;;;;;3.17;1.10;;;13.40;69.60;;;;;;5008843;28;20495;-75
2021/10/01 02:22:44;;;;;;;2.15;0.93;;;13.40;69.60;;;;;;5011342;28;20073;-74
2021/10/01 02:27:56;;;;;;;2.08;1.15;;;13.40;69.50;;;;;;5010766;28;20036;-74
2021/10/01 02:30:23;;;;;;;3.03;1.10;;;13.40;69.40;;;;;;5012168;28;20018;-74
2021/10/01 02:32:55;;;;;;;3.47;1.20;;;13.40;69.40;;;;;;5008935;28;20048;-74
2021/10/01 02:35:20;;;;;;;2.97;1.02;;;13.40;69.50;;;;;;5017407;28;20030;-74
2021/10/01 02:37:46;;;;;;;2.38;1.00;;;13.40;69.40;;;;;;5010996;28;20507;-73
2021/10/01 02:40:11;;;;;;;4.63;1.23;;;13.40;69.50;;;;;;5010928;28;20026;-73
2021/10/01 02:42:37;;;;;;;2.85;1.17;;;13.40;69.40;;;;;;5010946;28;21645;-74
2021/10/01 02:45:05;;;;;;;2.13;1.10;;;13.40;69.40;;;;;;5010923;28;20675;-75
2021/10/01 02:47:33;;;;;;;1.20;0.90;;;13.40;69.30;;;;;;5008872;28;20030;-76
2021/10/01 02:50:01;;;;;;;1.30;1.00;;;13.40;69.40;;;;;;5008959;28;20057;-75
2021/10/01 02:52:39;;;;;;;2.22;1.00;;;13.40;69.50;;;;;;5010452;28;20025;-74
2021/10/01 02:55:17;;;;;;;1.52;0.80;;;13.50;69.50;;;;;;5010219;28;20082;-75
2021/10/01 02:57:49;;;;;;;2.65;1.13;;;13.40;69.50;;;;;;5010046;28;20087;-74
2021/10/01 03:00:16;;;;;;;1.88;1.10;;;13.40;69.50;;;;;;5009230;28;20030;-73
2021/10/01 03:02:43;;;;;;;3.20;1.05;;;13.40;69.50;;;;;;5010522;28;20384;-74
2021/10/01 03:05:12;;;;;;;3.15;1.20;;;13.40;69.50;;;;;;5010160;28;20026;-74
2021/10/01 03:07:40;;;;;;;2.45;0.90;;;13.40;69.60;;;;;;5010332;28;20495;-75
2021/10/01 03:10:08;;;;;;;3.70;1.10;;;13.40;69.50;;;;;;5010680;28;20033;-74
2021/10/01 03:12:35;;;;;;;3.40;1.20;;;13.40;69.50;;;;;;5010752;28;20820;-75
2021/10/01 03:15:02;;;;;;;4.15;1.20;;;13.40;69.40;;;;;;5009993;28;20024;-75
2021/10/01 03:17:30;;;;;;;2.45;0.95;;;13.40;69.40;;;;;;5010254;28;20033;-75
2021/10/01 03:19:56;;;;;;;2.17;1.15;;;13.40;69.40;;;;;;5010649;28;20058;-75
2021/10/01 03:22:22;;;;;;;2.65;1.00;;;13.40;69.40;;;;;;5010895;28;20069;-75
2021/10/01 03:24:49;;;;;;;1.85;0.90;;;13.40;69.50;;;;;;5010088;28;20446;-74
2021/10/01 03:27:15;;;;;;;3.65;1.20;;;13.40;69.50;;;;;;5010433;28;20033;-74
2021/10/01 03:29:41;;;;;;;2.00;1.10;;;13.40;69.50;;;;;;5010374;28;20101;-75
2021/10/01 03:32:09;;;;;;;3.75;1.10;;;13.40;69.30;;;;;;5009387;28;20547;-74
2021/10/01 03:34:35;;;;;;;4.70;1.30;;;13.50;69.30;;;;;;5009285;28;20022;-74
2021/10/01 03:37:01;;;;;;;2.97;1.08;;;13.40;69.30;;;;;;5009778;28;20033;-75
2021/10/01 03:39:26;;;;;;;2.03;0.98;;;13.40;69.30;;;;;;5010084;28;20028;-73
2021/10/01 03:41:52;;;;;;;1.60;0.80;;;13.50;70.00;;;;;;5010258;28;20558;-74
2021/10/01 03:44:17;;;;;;;1.55;0.90;;;13.50;69.30;;;;;;5009878;28;20040;-74
2021/10/01 03:46:46;;;;;;;4.30;1.23;;;13.60;69.10;;;;;;5009518;28;20022;-74
2021/10/01 03:49:12;;;;;;;3.47;1.02;;;13.60;69.00;;;;;;5009840;28;20037;-74
2021/10/01 03:51:38;;;;;;;2.75;1.23;;;13.60;68.60;;;;;;5008972;28;20034;-74
2021/10/01 03:54:04;;;;;;;2.80;1.23;;;13.50;68.50;;;;;;5009932;28;20114;-75
2021/10/01 03:56:29;;;;;;;2.65;0.98;;;13.60;68.40;;;;;;5009905;28;20038;-75
2021/10/01 03:58:55;;;;;;;1.15;0.88;;;13.60;68.40;;;;;;5008866;28;20034;-76
2021/10/01 04:01:20;;;;;;;3.92;1.00;;;13.60;68.50;;;;;;5010170;28;20030;-75
2021/10/01 04:03:46;;;;;;;1.73;0.93;;;13.70;68.50;;;;;;5009862;28;20022;-75
2021/10/01 04:06:11;;;;;;;4.20;1.20;;;13.70;68.30;;;;;;5009249;28;20040;-75
2021/10/01 04:08:37;;;;;;;4.18;1.55;;;13.60;68.00;;;;;;5008994;28;20029;-74
2021/10/01 04:11:03;;;;;;;3.20;1.00;;;13.60;68.00;;;;;;5009570;28;20095;-74
2021/10/01 04:13:28;;;;;;;2.30;1.02;;;13.50;68.10;;;;;;5009625;28;20033;-75
2021/10/01 04:15:54;;;;;;;1.90;0.82;;;13.50;68.20;;;;;;5008979;28;20045;-75
2021/10/01 04:18:20;;;;;;;2.17;1.25;;;13.50;68.60;;;;;;5008163;28;20022;-74
2021/10/01 04:20:46;;;;;;;2.00;1.00;;;13.50;68.60;;;;;;5008996;28;20018;-75
2021/10/01 04:23:12;;;;;;;2.03;1.05;;;13.50;68.70;;;;;;5008997;28;20042;-74
2021/10/01 04:25:38;;;;;;;3.67;1.20;;;13.40;68.60;;;;;;5008545;28;20022;-74
2021/10/01 04:28:07;;;;;;;3.20;1.20;;;13.50;68.70;;;;;;5009131;28;20082;-74
2021/10/01 04:30:38;;;;;;;1.77;0.90;;;13.40;68.70;;;;;;5010198;28;20129;-74
2021/10/01 04:33:13;;;;;;;1.35;0.80;;;13.40;68.70;;;;;;5009342;28;20014;-74
2021/10/01 04:35:39;;;;;;;3.22;1.10;;;13.40;68.80;;;;;;5008840;28;20034;-74
2021/10/01 04:38:05;;;;;;;4.80;1.40;;;13.40;69.00;;;;;;5008811;28;20026;-74
2021/10/01 04:40:30;;;;;;;3.75;1.58;;;13.30;68.90;;;;;;5009404;28;20055;-74
2021/10/01 04:42:56;;;;;;;2.47;1.10;;;13.20;69.00;;;;;;5018883;28;20548;-73
2021/10/01 04:45:22;;;;;;;2.30;0.90;;;13.20;69.20;;;;;;5021690;28;20041;-74
2021/10/01 04:47:47;;;;;;;2.50;1.00;;;13.20;69.30;;;;;;5012034;28;20026;-73
2021/10/01 04:50:13;;;;;;;1.98;0.90;;;13.20;69.30;;;;;;5010789;28;20035;-74
2021/10/01 04:52:38;;;;;;;2.53;1.25;;;13.20;69.40;;;;;;5012543;28;20069;-74
2021/10/01 04:55:04;;;;;;;4.50;1.40;;;13.20;69.40;;;;;;5024500;28;20025;-74
2021/10/01 04:57:30;;;;;;;3.65;1.10;;;13.10;69.40;;;;;;5013745;28;20037;-73
2021/10/01 04:59:55;;;;;;;2.03;1.00;;;13.10;69.50;;;;;;5014921;28;20557;-74
2021/10/01 05:02:21;;;;;;;1.65;0.90;;;13.00;69.50;;;;;;5035572;28;20061;-73
2021/10/01 05:04:46;;;;;;;2.88;1.20;;;13.00;69.60;;;;;;5006233;28;20022;-73
2021/10/01 05:07:14;;;;;;;3.42;1.10;;;13.00;69.90;;;;;;5007103;28;20026;-74
2021/10/01 05:09:39;;;;;;;1.55;1.00;;;13.00;69.80;;;;;;5010471;28;20025;-74
2021/10/01 05:12:05;;;;;;;2.45;1.20;;;13.00;69.80;;;;;;5013270;28;20037;-73
2021/10/01 05:14:31;;;;;;;3.58;1.20;;;13.00;69.80;;;;;;5014151;28;20029;-73
2021/10/01 05:16:56;;;;;;;2.50;0.90;;;13.00;69.70;;;;;;5039981;28;20036;-73
2021/10/01 05:19:22;;;;;;;3.00;1.00;;;13.00;70.30;;;;;;5011548;28;20044;-73
2021/10/01 05:21:47;;;;;;;2.63;1.00;;;13.00;69.70;;;;;;5010301;28;20037;-73
2021/10/01 05:24:14;;;;;;;2.38;1.02;;;13.00;69.60;;;;;;5009692;28;20036;-73
2021/10/01 05:26:41;;;;;;;4.10;1.20;;;13.00;69.60;;;;;;5012260;28;20042;-74
2021/10/01 05:29:07;;;;;;;2.88;1.30;;;13.00;69.60;;;;;;5028616;28;20038;-75
2021/10/01 05:31:32;;;;;;;4.22;1.40;;;13.00;69.60;;;;;;5001099;28;20056;-74
2021/10/01 05:33:58;;;;;;;2.33;1.13;;;12.90;69.50;;;;;;5017887;28;20087;-75
2021/10/01 05:36:23;;;;;;;3.03;1.00;;;13.00;69.60;;;;;;5027637;28;20028;-75
2021/10/01 05:38:49;;;;;;;4.18;1.20;;;13.00;69.60;;;;;;5012979;28;20398;-76
2021/10/01 05:41:14;;;;;;;3.92;1.05;;;12.90;69.50;;;;;;5004953;28;20036;-75
2021/10/01 05:43:40;;;;;;;1.75;1.00;;;12.90;69.70;;;;;;5003960;28;20032;-76
2021/10/01 05:46:08;;;;;;;4.00;1.25;;;12.90;69.60;;;;;;5007987;28;20050;-75
2021/10/01 05:48:36;;;;;;;2.30;1.00;;;12.90;69.50;;;;;;5007426;28;20116;-74
2021/10/01 05:51:07;;;;;;;2.45;1.20;;;12.90;69.50;;;;;;5007590;28;20030;-76
2021/10/01 05:53:46;;;;;;;2.45;1.10;;;12.90;69.40;;;;;;5014726;28;20478;-75
2021/10/01 05:56:12;;;;;;;2.90;1.10;;;12.90;69.40;;;;;;5004725;28;20403;-75
2021/10/01 05:58:39;;;;;;;2.58;1.30;;;12.90;69.30;;;;;;5030405;28;20049;-74
2021/10/01 06:01:05;;;;;;;4.38;1.20;;;12.90;69.00;;;;;;5055088;28;20897;-74
2021/10/01 06:03:31;;;;;;;4.82;1.17;;;12.90;69.00;;;;;;5013377;28;20070;-75
2021/10/01 06:05:56;;;;;;;3.45;1.00;;;12.90;68.90;;;;;;5065315;28;20024;-75
2021/10/01 06:08:22;;;;;;;2.70;1.30;;;13.00;68.90;;;;;;5074813;28;20022;-75
2021/10/01 06:10:48;;;;;;;2.75;1.30;;;13.00;69.60;;;;;;5008477;28;20044;-75
2021/10/01 06:13:14;;;;;;;4.05;1.30;;;13.00;68.80;;;;;;5008590;28;20574;-76
2021/10/01 06:15:39;;;;;;;3.70;1.13;;;13.00;68.70;;;;;;5008740;28;20030;-76
2021/10/01 06:18:05;;;;;;;3.60;1.30;;;13.10;68.70;;;;;;5007998;28;20026;-76
2021/10/01 06:20:30;;;;;;;2.47;0.98;;;13.10;68.70;;;;;;5008715;28;20032;-76
2021/10/01 06:22:56;;;;;;;3.08;1.17;;;13.10;68.70;;;;;;5008857;28;20022;-76
2021/10/01 06:25:22;;;;;;;3.03;1.27;;;13.20;68.40;;;;;;5008667;28;20053;-76
2021/10/01 06:27:49;;;;;;;2.13;1.20;;;13.20;68.10;;;;;;5008186;28;20547;-76
2021/10/01 06:30:15;;;;;;;3.50;1.10;;;13.20;68.10;;;;;;5005091;28;20110;-76
2021/10/01 06:32:40;;;;;;;3.72;1.30;;;13.30;68.20;;;;;;4998775;28;20054;-75
2021/10/01 06:35:07;;;;;;;3.22;1.05;;;13.30;68.00;;;;;;5002457;28;20027;-76
2021/10/01 06:37:33;;;;;;;2.10;1.13;;;13.30;68.20;;;;;;5004395;28;20034;-74
2021/10/01 06:39:59;;;;;;;3.00;1.15;;;13.30;68.00;;;;;;5005996;28;20063;-75
2021/10/01 06:42:25;;;;;;;3.60;1.13;;;13.40;67.90;;;;;;5005945;28;20035;-75
2021/10/01 06:44:53;;;;;;;3.38;1.13;;;13.40;67.90;;;;;;5008013;28;20046;-74
2021/10/01 06:47:24;;;;;;;4.15;1.33;;;13.40;67.80;;;;;;5006025;28;20029;-75
2021/10/01 06:53:12;;;;;;;3.35;1.58;;;13.50;67.60;;;;;;4984081;28;20038;-75
2021/10/01 07:36:45;;;;;;;3.85;1.13;;;14.10;66.10;;;;;;5010299;28;20069;-75
2021/10/01 08:19:58;;;;;;;1.52;1.00;;;14.60;65.70;;;;;;5010217;28;20053;-74
2021/10/01 08:22:23;;;;;;;4.03;1.42;;;14.60;65.40;;;;;;5010097;28;20393;-74
2021/10/01 08:24:49;;;;;;;3.30;1.10;;;14.80;65.20;;;;;;5009320;28;20066;-75
2021/10/01 08:27:15;;;;;;;4.22;1.27;;;14.80;65.10;;;;;;5009401;28;20040;-77
2021/10/01 08:29:41;;;;;;;3.00;1.40;;;14.90;65.00;;;;;;5009616;28;20014;-75
2021/10/01 08:32:07;;;;;;;2.33;0.90;;;14.90;64.90;;;;;;5009254;28;20063;-77
2021/10/01 08:34:36;;;;;;;3.28;1.23;;;15.00;65.00;;;;;;5010865;28;20021;-74
2021/10/01 08:37:02;;;;;;;2.97;1.25;;;15.00;65.00;;;;;;5007832;28;20034;-75
2021/10/01 08:39:28;;;;;;;4.05;1.00;;;15.00;65.10;;;;;;5008979;28;20385;-74
2021/10/01 08:41:54;;;;;;;3.17;1.20;;;15.10;65.30;;;;;;5008063;28;20426;-73
2021/10/01 08:44:20;;;;;;;3.40;1.13;;;15.00;65.70;;;;;;5007730;28;20034;-76
2021/10/01 08:46:47;;;;;;;2.45;1.10;;;14.90;66.10;;;;;;5013355;28;20048;-76
2021/10/01 08:49:14;;;;;;;2.17;1.10;;;14.90;66.50;;;;;;5007615;28;20018;-74
2021/10/01 08:51:40;;;;;;;1.80;0.85;;;14.80;67.00;;;;;;4997217;28;22050;-76
2021/10/01 08:54:06;;;;;;;4.35;1.30;;;14.90;67.40;;;;;;5007855;28;20026;-75
2021/10/01 08:56:32;;;;;;;4.72;1.10;;;14.80;68.00;;;;;;5012457;28;20036;-75
2021/10/01 08:58:58;;;;;;;3.63;1.30;;;14.80;68.10;;;;;;5008204;28;20369;-75
2021/10/01 09:01:24;;;;;;;2.47;1.23;;;14.90;68.40;;;;;;5008956;28;20030;-76
2021/10/01 09:03:50;;;;;;;4.80;1.20;;;14.90;68.40;;;;;;5008930;28;20021;-75
2021/10/01 09:06:17;;;;;;;2.33;1.17;;;14.90;68.30;;;;;;5009045;28;20022;-75
2021/10/01 09:08:56;;;;;;;3.35;1.30;;;15.00;68.40;;;;;;5001699;28;20063;-77
2021/10/01 09:11:31;;;;;;;3.00;1.00;;;15.00;68.50;;;;;;5010571;28;20041;-75
2021/10/01 09:14:03;;;;;;;3.47;1.20;;;15.00;68.40;;;;;;5003077;28;20095;-73
2021/10/01 09:16:30;;;;;;;6.07;1.52;;;15.10;68.50;;;;;;4999731;28;20395;-76
2021/10/01 09:18:55;;;;;;;3.20;1.33;;;15.10;68.10;;;;;;5004961;28;20141;-76
2021/10/01 09:21:22;;;;;;;2.45;1.30;;;15.10;68.20;;;;;;5005128;28;20527;-80
2021/10/01 09:23:58;;;;;;;5.43;1.30;;;15.10;68.10;;;;;;5003800;28;20037;-75
2021/10/01 09:26:25;;;;;;;4.47;1.65;;;15.10;67.90;;;;;;5007038;28;20034;-76
2021/10/01 09:28:51;;;;;;;2.72;1.50;;;15.10;67.90;;;;;;5004419;28;20114;-76
2021/10/01 09:31:32;;;;;;;2.70;1.40;;;15.10;68.10;;;;;;5004210;28;20060;-76
2021/10/01 09:33:58;;;;;;;2.63;1.38;;;15.10;68.40;;;;;;5004984;28;20369;-77
2021/10/01 09:36:26;;;;;;;2.63;1.00;;;15.00;68.80;;;;;;5001600;28;20056;-80
2021/10/01 09:38:52;;;;;;;4.07;1.45;;;15.00;69.10;;;;;;5002527;28;20068;-78
2021/10/01 09:41:25;;;;;;;4.28;1.50;;;15.00;69.60;;;;;;5025513;28;20114;-78
2021/10/01 09:44:02;;;;;;;3.22;1.20;;;15.00;69.90;;;;;;5015147;28;20369;-79
2021/10/01 09:46:48;;;;;;;3.97;1.48;;;15.00;70.10;;;;;;5045819;28;20382;-80
2021/10/01 09:49:17;;;;;;;3.97;1.10;;;15.00;70.40;;;;;;5012454;28;20045;-77
2021/10/01 09:51:55;;;;;;;3.42;1.40;;;15.00;70.50;;;;;;5006990;28;20026;-79
2021/10/01 09:54:24;;;;;;;3.13;1.20;;;15.10;70.80;;;;;;5000628;28;20075;-80
2021/10/01 09:56:58;;;;;;;1.85;1.23;;;15.00;71.00;;;;;;5006048;28;20029;-81
2021/10/01 09:59:24;;;;;;;2.65;1.17;;;15.00;71.30;;;;;;5008283;28;20026;-81
2021/10/01 10:02:05;;;;;;;3.60;1.27;;;15.10;71.50;;;;;;5011463;28;20109;-80
2021/10/01 10:04:45;;;;;;;3.17;1.30;;;15.10;71.70;;;;;;5006233;28;20035;-79
2021/10/01 10:07:20;;;;;;;2.00;1.05;;;15.10;71.70;;;;;;5008021;28;20034;-82
2021/10/01 10:09:50;;;;;;;2.80;1.27;;;15.20;71.70;;;;;;5016169;28;20083;-81
2021/10/01 10:12:20;;;;;;;3.25;1.30;;;15.10;71.70;;;;;;5007733;28;20034;-81
2021/10/01 10:14:51;;;;;;;1.58;0.82;;;15.10;71.90;;;;;;5007890;28;20022;-80
2021/10/01 10:17:23;;;;;;;3.08;1.45;;;15.20;71.80;;;;;;5007245;28;20034;-81
2021/10/01 10:19:54;;;;;;;4.53;1.45;;;15.30;71.90;;;;;;5008476;28;20030;-81
2021/10/01 10:22:20;;;;;;;4.25;0.90;;;15.40;72.00;;;;;;5002468;28;20022;-79
2021/10/01 10:24:47;;;;;;;2.95;1.42;;;15.50;71.80;;;;;;5007837;28;20025;-79
2021/10/01 10:27:13;;;;;;;2.75;1.30;;;15.50;71.90;;;;;;5010632;28;20118;-80
2021/10/01 10:29:43;;;;;;;3.00;1.10;;;15.60;72.00;;;;;;5013324;28;20108;-79
2021/10/01 10:32:12;;;;;;;2.95;1.10;;;15.80;71.70;;;;;;5008760;28;20610;-77
2021/10/01 10:34:49;;;;;;;4.90;1.45;;;15.90;71.50;;;;;;5012590;28;20037;-78
2021/10/01 10:37:16;;;;;;;4.15;1.20;;;16.10;70.90;;;;;;5008570;28;20030;-79
2021/10/01 10:39:48;;;;;;;4.35;1.50;;;16.30;70.50;;;;;;5009464;28;20026;-78
2021/10/01 10:42:20;;;;;;;2.97;1.25;;;16.40;69.20;;;;;;5021441;28;20030;-77
2021/10/01 10:44:53;;;;;;;3.67;1.30;;;16.50;68.70;;;;;;5013414;28;20030;-78
2021/10/01 10:47:42;;;;;;;4.70;1.13;;;16.60;68.60;;;;;;5009122;28;20385;-76
2021/10/01 10:50:33;;;;;;;3.38;1.30;;;16.60;68.20;;;;;;5010935;28;20032;-74
2021/10/01 10:53:04;;;;;;;3.38;1.30;;;16.70;67.30;;;;;;5007950;28;20040;-76
2021/10/01 10:55:42;;;;;;;2.95;1.17;;;16.70;66.80;;;;;;5015153;28;20491;-76
2021/10/01 10:58:26;;;;;;;5.28;1.35;;;16.70;66.20;;;;;;5007468;28;20492;-77
2021/10/01 11:01:23;;;;;;;2.92;1.10;;;16.60;65.20;;;;;;5024859;28;20025;-77
2021/10/01 11:04:09;;;;;;;2.42;1.15;;;16.60;65.30;;;;;;5013134;28;20053;-79
2021/10/01 11:06:38;;;;;;;3.25;1.10;;;16.70;65.10;;;;;;5012100;28;20034;-77
2021/10/01 11:09:12;;;;;;;3.40;1.20;;;16.80;65.00;;;;;;5012583;28;20022;-76
2021/10/01 11:11:44;;;;;;;3.22;1.05;;;16.80;64.40;;;;;;5013631;28;20070;-78
2021/10/01 11:14:20;;;;;;;4.65;1.35;;;16.80;64.40;;;;;;5012414;28;20396;-77
2021/10/01 11:16:52;;;;;;;3.75;1.02;;;16.80;64.10;;;;;;5007916;28;20041;-78
2021/10/01 11:19:34;;;;;;;3.33;1.10;;;16.80;63.80;;;;;;5006759;28;20373;-77
2021/10/01 11:22:00;;;;;;;3.85;1.17;;;16.90;64.20;;;;;;5005736;28;20289;-77
2021/10/01 11:24:25;;;;;;;3.05;1.30;;;17.00;64.10;;;;;;5008613;28;20026;-77
2021/10/01 11:26:55;;;;;;;3.05;1.20;;;17.00;63.60;;;;;;5007276;28;20022;-78
2021/10/01 11:29:26;;;;;;;3.75;1.20;;;17.00;63.60;;;;;;4999346;28;20022;-79
2021/10/01 11:31:55;;;;;;;3.83;1.17;;;17.00;63.60;;;;;;5016226;28;20034;-78
2021/10/01 11:34:39;;;;;;;3.70;1.17;;;17.10;63.40;;;;;;5012089;27;20022;-79
2021/10/01 11:37:30;;;;;;;4.57;1.17;;;17.10;62.90;;;;;;5007522;28;20063;-80
2021/10/01 11:40:08;;;;;;;4.63;1.20;;;17.10;63.00;;;;;;5019492;28;20033;-80
2021/10/01 11:42:37;;;;;;;3.95;1.00;;;17.10;62.80;;;;;;5012846;28;20028;-79
2021/10/01 11:45:14;;;;;;;2.25;1.02;;;17.10;63.00;;;;;;5013304;28;20022;-80
2021/10/01 11:47:54;;;;;;;4.53;1.50;;;17.10;63.20;;;;;;5012072;28;20110;-78
2021/10/01 11:50:50;;;;;;;1.55;0.90;;;17.10;62.70;;;;;;5109144;27;20067;-78
2021/10/01 11:53:25;;;;;;;2.72;0.90;;;17.10;63.40;;;;;;5005345;28;20034;-79
2021/10/01 11:56:01;;;;;;;4.35;1.30;;;17.00;63.80;;;;;;5011490;28;20990;-78
2021/10/01 11:58:29;;;;;;;3.00;1.10;;;17.00;63.80;;;;;;5029283;28;20089;-79
2021/10/01 12:00:55;;;;;;;4.18;1.20;;;17.00;64.10;;;;;;5018162;28;20076;-78
2021/10/01 12:03:22;;;;;;;2.33;1.00;;;17.00;64.30;;;;;;5009882;28;20488;-78
2021/10/01 12:05:55;;;;;;;2.25;1.17;;;17.10;64.50;;;;;;5010358;28;20393;-78
2021/10/01 12:08:23;;;;;;;2.15;0.90;;;17.20;64.50;;;;;;5008786;28;20029;-77
2021/10/01 12:10:54;;;;;;;3.38;1.20;;;17.20;64.50;;;;;;5006558;28;20046;-77
2021/10/01 12:13:28;;;;;;;1.98;1.17;;;17.20;64.10;;;;;;5010924;28;20442;-77
2021/10/01 12:16:10;;;;;;;2.92;1.25;;;17.10;64.10;;;;;;5005321;28;20041;-78
2021/10/01 12:18:44;;;;;;;2.65;0.90;;;17.10;63.90;;;;;;5008368;28;20499;-78
2021/10/01 12:21:19;;;;;;;3.60;1.20;;;17.10;63.90;;;;;;5008075;28;20415;-77
2021/10/01 12:23:45;;;;;;;2.13;0.82;;;17.20;63.60;;;;;;5002513;28;20097;-77
2021/10/01 12:26:13;;;;;;;2.65;1.10;;;17.20;63.90;;;;;;5004217;28;20036;-78
2021/10/01 12:28:40;;;;;;;2.47;1.17;;;17.20;63.70;;;;;;5008796;28;20026;-80
2021/10/01 12:31:06;;;;;;;1.40;0.80;;;17.30;63.60;;;;;;5003002;28;20038;-78
2021/10/01 12:33:33;;;;;;;1.85;0.60;;;17.40;63.60;;;;;;5010395;28;20022;-77
2021/10/01 12:35:59;;;;;;;4.40;1.20;;;17.40;63.60;;;;;;5010346;28;20069;-80
2021/10/01 12:38:25;;;;;;;2.83;0.98;;;17.50;63.40;;;;;;5005948;28;20036;-78
2021/10/01 12:41:12;;;;;;;2.35;0.80;;;17.50;63.20;;;;;;5003428;28;20648;-79
2021/10/01 12:43:52;;;;;;;3.40;1.13;;;17.50;63.50;;;;;;5009248;28;20040;-82
2021/10/01 12:46:39;;;;;;;4.22;1.40;;;17.50;63.50;;;;;;5109799;27;20128;-80
2021/10/01 12:49:28;;;;;;;2.28;1.17;;;17.50;63.30;;;;;;5005978;28;20022;-80
2021/10/01 12:52:11;;;;;;;6.15;1.95;;;17.60;62.90;;;;;;5007856;28;20396;-80
2021/10/01 12:54:45;;;;;;;3.20;1.00;;;17.60;62.30;;;;;;5004345;28;20052;-78
2021/10/01 12:57:19;;;;;;;4.05;1.27;;;17.60;62.20;;;;;;5002855;28;20050;-78
2021/10/01 13:00:03;;;;;;;2.88;1.30;;;17.70;61.50;;;;;;5011631;28;20026;-78
2021/10/01 13:02:34;;;;;;;3.70;1.23;;;17.70;60.80;;;;;;5003106;28;20025;-83
2021/10/01 13:05:02;;;;;;;3.17;1.10;;;17.70;60.40;;;;;;5006273;28;20057;-81
2021/10/01 13:07:34;;;;;;;2.80;1.30;;;17.80;60.10;;;;;;5004669;28;20538;-78
2021/10/01 13:10:22;;;;;;;2.28;0.95;;;17.80;59.50;;;;;;5010066;28;20026;-79
2021/10/01 13:12:58;;;;;;;1.98;0.90;;;17.80;59.60;;;;;;5004327;28;20403;-80
2021/10/01 13:15:30;;;;;;;2.60;1.20;;;17.80;58.90;;;;;;4998886;28;20467;-81
2021/10/01 13:18:09;;;;;;;1.70;0.90;;;17.80;58.50;;;;;;5008716;28;20026;-82
2021/10/01 13:20:39;;;;;;;3.92;1.20;;;17.80;58.70;;;;;;5000370;28;20037;-81
2021/10/01 13:23:17;;;;;;;2.00;1.20;;;17.80;59.00;;;;;;4997110;28;20026;-80
2021/10/01 13:25:52;;;;;;;4.18;1.10;;;17.80;58.80;;;;;;4996671;28;20057;-80
2021/10/01 13:28:21;;;;;;;2.83;0.90;;;17.80;59.10;;;;;;5014013;28;20021;-77
2021/10/01 13:30:48;;;;;;;2.35;0.75;;;17.80;59.20;;;;;;5018029;28;20106;-80
2021/10/01 13:33:14;;;;;;;3.55;1.10;;;17.80;59.30;;;;;;5011978;28;20034;-76
2021/10/01 13:35:40;;;;;;;3.20;1.10;;;17.80;59.50;;;;;;5011961;28;20068;-76
2021/10/01 13:38:07;;;;;;;2.60;1.10;;;17.80;59.50;;;;;;5016061;28;20057;-79
2021/10/01 13:40:34;;;;;;;4.07;1.00;;;17.80;59.40;;;;;;5016679;28;20022;-77
2021/10/01 13:43:00;;;;;;;1.58;0.80;;;17.80;59.20;;;;;;5008418;28;20038;-81
2021/10/01 13:45:25;;;;;;;2.35;0.90;;;17.80;59.20;;;;;;5012839;28;20083;-78
2021/10/01 13:47:51;;;;;;;2.80;1.13;;;17.80;59.40;;;;;;5026347;28;20082;-75
2021/10/01 13:50:18;;;;;;;2.63;1.20;;;17.80;59.10;;;;;;5012849;28;20093;-80
2021/10/01 13:52:44;;;;;;;3.22;1.10;;;17.80;58.90;;;;;;5018327;28;20014;-78
2021/10/01 13:55:11;;;;;;;3.78;1.35;;;17.80;58.50;;;;;;5014614;28;20030;-78
2021/10/01 13:57:37;;;;;;;2.28;1.10;;;17.80;58.30;;;;;;5003224;28;20022;-77
2021/10/01 14:00:06;;;;;;;3.33;1.00;;;17.90;58.30;;;;;;5002302;28;20029;-80
2021/10/01 14:02:37;;;;;;;2.35;1.10;;;17.90;58.20;;;;;;4997940;28;20015;-78
2021/10/01 14:05:05;;;;;;;3.08;1.08;;;18.00;58.50;;;;;;5009808;28;20078;-77
2021/10/01 14:07:30;;;;;;;2.03;0.90;;;18.00;58.30;;;;;;5003168;28;20049;-78
2021/10/01 14:09:59;;;;;;;1.20;0.70;;;18.00;58.60;;;;;;4999327;28;20476;-79
2021/10/01 14:12:28;;;;;;;2.83;1.13;;;18.10;58.40;;;;;;5005286;28;20025;-77
2021/10/01 14:14:55;;;;;;;1.42;0.73;;;18.10;58.10;;;;;;5003762;28;20030;-80
2021/10/01 14:17:20;;;;;;;3.53;1.02;;;18.10;58.10;;;;;;5005362;28;20042;-77
2021/10/01 14:19:46;;;;;;;1.20;0.70;;;18.10;58.30;;;;;;5002758;28;20034;-77
2021/10/01 14:22:12;;;;;;;2.88;1.00;;;18.10;58.70;;;;;;5030164;28;20038;-80
2021/10/01 14:24:37;;;;;;;3.47;1.35;;;18.00;58.70;;;;;;5031589;28;20059;-78
2021/10/01 14:27:07;;;;;;;3.40;1.10;;;18.00;58.80;;;;;;5006962;28;20381;-80